Main page
METAR-TAF:

METAR-TAF

Airports :

Belgaum Airport

Belgaum, India

latitude: 15-51-33N, longitude: 74-37-03E, elevation: 758 m

Current weather observation

The report was made 3 hours and 1 minutes ago, at 14:00 UTC
Wind 6 kt from the Northeast
Temperature 25°C
Humidity 65%
Pressure 1015 hPa
Visibility: 6000 m

METAR: VOBM 211400Z 05006KT 6000 NSC 25/18 Q1015

Time: 22:31 (17:01 UTC)

Forecast

The report was made 6 hours and 1 minutes ago, at 11:00 UTC
Forecast valid from 21 at 12 UTC to 21 at 21 UTC
Wind 5 kt from the East
Visibility: 6000 m
Scattered clouds at a height of 1200 ft
Scattered clouds at a height of 1800 ft

TAF: VOBM 211100Z 2112/2121 09005KT 6000 SCT012 SCT018

Weather observations and forecasts of more than 4000 airports (METAR and TAF reports).

The available stations are represented by yellow and red dots on the map.

Hover mouse over dot to see the name of the station.

Then click to see weather observations and forecasts.

To change the map : click on the green buttons with a black cross to zoom in, on the green button with a dash to zoom out, or on the green arrows for adjacent maps.


METAR-TAF: